SBBE Airport Information

Runway Information
Runway 6 Length 9186 ft width 148 ft
Elevation 0 ft Threshold 0 ft Heading 0
Runway 24 Length 9186 ft Width 148 ft
Elevation 0 ft Threshold 0 ft Heading 0
Runway 7 Length 108 ft width 108 ft
Elevation 0 ft Threshold 0 ft Heading 0
Runway 20 Length 108 ft Width 108 ft
Elevation 0 ft Threshold 0 ft Heading 0
Airport Frequencies
Type APP Name BELEM APP Frequency 119.05 MHZ
Type ATIS Name BELEM ATIS Frequency 127.6 MHZ
Type GND Name GND Frequency 121.9 MHZ
Type OPS Name BELEM OPS Frequency 122.5 MHZ
Type TWR Name BELEM TWR Frequency 118.7 MHZ
Airport Navaids
Type VOR-DME Name Belem Frequency 117300 KHZ
Type NDB Name Belem Frequency 250 KHZ
Type NDB Name Valde Frequency 395 KHZ
Airport Weather Information & NOTAM
ADDS - METARS form results

(0650 UTC 22 April 2018)
 
METAR text: SBBE 220600Z 00000KT CAVOK 24/23 Q1010
Conditions at: SBBE (BELEM/VAL DE CAE, BR) observed 0600 UTC 22 April 2018
Temperature: 24.0°C (75°F)
Dewpoint: 23.0°C (73°F) [RH = 94%]
Pressure (altimeter): 29.82 inches Hg (1010.0 mb)
Winds: calm
Visibility: 6 or more miles (10+ km)
Ceiling: ceiling and visibility are OK
Clouds: unknown
Weather: no significant weather observed at this time